Campanya meteocatpedra

Dades de l'estació automàtica Monells

?
?
Resum diari 21:00 TU
Dades diàries de l'estació meteorològica
Temperatura mitjana 18.5 °C
Temperatura màxima 21.4 °C 13:42 TU
Temperatura mínima 15.0 °C 1:16 TU
Humitat relativa mitjana 81%
Precipitació acumulada 0.0 mm
Ratxa màxima del vent (2 m) 24.8 km/h - 47º 10:58 TU
Irradiació solar global 6.3 MJ/m2

El tram horari està expressat en Temps Universal (TU). Cal sumar una hora en horari d'hivern i dues en horari d'estiu per passar a l'hora oficial.

Monells

Metadades estació meteorol´gica
Municipi Cruïlles, Monells i Sant Sadurní de l'Heura
Comarca Baix Empordà
Altitud 60 m
Data alta 04.03.1998
Estat actual Operativa
Dades de període
Període
TU
TM
°C
TX
°C
TN
°C
HRM
%
PPT
mm
VVM (2 m)
km/h
DVM (2 m)
graus
VVX (2 m)
km/h
RS
W/m2
00:00 - 00:30 16.5 17.2 15.9 85 0.0 1.1 36 6.1 0
00:30 - 01:00 15.7 16.5 15.2 89 0.0 1.4 240 4.7 0
01:00 - 01:30 15.1 15.4 15.0 95 0.0 0.7 210 2.9 0
01:30 - 02:00 16.1 18.3 15.2 89 0.0 2.9 309 10.1 0
02:00 - 02:30 18.5 18.8 18.4 71 0.0 4.7 18 12.6 0
02:30 - 03:00 18.2 18.4 18.0 73 0.0 4.3 12 9.7 0
03:00 - 03:30 18.2 18.3 18.1 74 0.0 3.2 7 7.9 0
03:30 - 04:00 17.8 18.1 17.2 76 0.0 1.1 35 4.3 0
04:00 - 04:30 16.8 18.1 16.2 84 0.0 1.8 286 9.7 0
04:30 - 05:00 16.7 18.2 16.0 85 0.0 2.9 225 6.1 0
05:00 - 05:30 16.5 16.8 16.1 85 0.0 0.7 226 4.3 0
05:30 - 06:00 16.0 16.9 15.4 88 0.0 1.4 47 7.9 0
06:00 - 06:30 15.5 16.7 15.3 92 0.0 1.1 218 4.7 9
06:30 - 07:00 16.7 18.3 15.5 87 0.0 1.4 11 5.8 51
07:00 - 07:30 18.6 18.9 18.3 74 0.0 4.0 20 10.8 62
07:30 - 08:00 18.9 19.1 18.8 74 0.0 6.1 27 11.9 67
08:00 - 08:30 19.5 19.8 19.1 73 0.0 6.1 17 11.5 190
08:30 - 09:00 20.0 20.4 19.8 71 0.0 7.6 26 18.0 285
09:00 - 09:30 20.4 20.6 20.3 71 0.0 8.3 33 16.6 244
09:30 - 10:00 20.5 20.6 20.5 73 0.0 11.2 41 19.1 142
10:00 - 10:30 20.6 20.7 20.5 71 0.0 12.2 35 22.3 204
10:30 - 11:00 20.8 20.9 20.7 71 0.0 13.3 37 24.8 267
11:00 - 11:30 20.8 20.9 20.7 71 0.0 12.2 35 20.5 280
11:30 - 12:00 20.8 20.9 20.7 73 0.0 11.5 40 23.8 277
12:00 - 12:30 20.9 21.0 20.7 73 0.0 11.2 43 23.4 211
12:30 - 13:00 20.9 21.1 20.7 73 0.0 11.2 43 18.0 257
13:00 - 13:30 21.0 21.1 20.9 71 0.0 13.0 42 22.0 293
13:30 - 14:00 21.2 21.4 21.0 70 0.0 11.5 39 20.2 318
14:00 - 14:30 20.9 21.1 20.9 70 0.0 9.7 38 19.8 127
14:30 - 15:00 20.7 20.8 20.5 72 0.0 10.8 48 18.4 96
15:00 - 15:30 20.5 20.6 20.3 72 0.0 7.6 45 14.4 60
15:30 - 16:00 20.2 20.4 19.9 74 0.0 3.6 76 11.2 35
16:00 - 16:30 19.8 20.0 19.6 78 0.0 0.0 115 1.8 19
16:30 - 17:00 19.0 19.5 18.7 88 0.0 0.4 296 2.5 4
17:00 - 17:30 18.6 18.7 18.4 88 0.0 0.7 289 2.9 0
17:30 - 18:00 17.9 18.4 17.8 93 0.0 1.8 217 3.6 0
18:00 - 18:30 17.6 17.8 17.3 95 0.0 1.4 222 3.6 0
18:30 - 19:00 17.2 17.3 17.2 95 0.0 1.8 224 4.0 0
19:00 - 19:30 17.1 17.2 16.9 96 0.0 1.4 225 3.6 0
19:30 - 20:00 16.7 16.8 16.6 97 0.0 1.1 208 3.6 0
20:00 - 20:30 16.4 16.6 16.1 97 0.0 1.1 222 3.2 0
20:30 - 21:00 16.0 16.1 15.8 98 0.0 0.7 221 2.9 0
21:00 - 21:30 15.7 15.8 15.6 98 0.0 1.1 216 5.0 0

Les dades en taronja només han passat un control de qualitat automàtic. Resta pendent la seva validació definitiva.